createdAt,value
2019-06-15T00:00:29.213Z,100676.31
2019-06-15T00:02:58.121Z,100679.61
2019-06-15T00:05:26.994Z,100682.56
2019-06-15T00:07:55.914Z,100686.14
2019-06-15T00:10:24.780Z,100679.97
2019-06-15T00:12:53.662Z,100679.72
2019-06-15T00:15:22.572Z,100682.27
2019-06-15T00:17:51.488Z,100668.83
2019-06-15T00:20:20.436Z,100664.84
2019-06-15T00:22:49.338Z,100657.42
2019-06-15T00:25:18.254Z,100662.27
2019-06-15T00:27:47.149Z,100659.72
2019-06-15T00:30:16.060Z,100652.62
2019-06-15T00:32:44.984Z,100648.44
2019-06-15T00:35:13.878Z,100640.76
2019-06-15T00:37:42.762Z,100623.36
2019-06-15T00:40:11.705Z,100617.39
2019-06-15T00:42:40.594Z,100603.54
2019-06-15T00:45:09.491Z,100597.52
2019-06-15T00:47:38.364Z,100595.72
2019-06-15T00:50:07.397Z,100589.70
2019-06-15T00:52:36.285Z,100592.33
2019-06-15T00:55:05.298Z,100587.75
2019-06-15T00:57:34.318Z,100584.53
2019-06-15T01:00:03.154Z,100581.80
2019-06-15T01:02:32.062Z,100571.70
2019-06-15T01:05:00.974Z,100562.51
2019-06-15T01:07:29.878Z,100549.00
2019-06-15T01:09:58.795Z,100552.20
2019-06-15T01:12:27.688Z,100550.75
2019-06-15T01:14:56.612Z,100540.09
2019-06-15T01:17:25.517Z,100535.19
2019-06-15T01:19:54.449Z,100520.41
2019-06-15T01:22:23.326Z,100521.72
2019-06-15T01:25:04.941Z,100511.71
2019-06-15T01:27:21.190Z,100501.05
2019-06-15T01:29:50.090Z,100485.73
2019-06-15T01:32:19.005Z,100484.37
2019-06-15T01:34:47.898Z,100480.02
2019-06-15T01:37:16.780Z,100480.83
2019-06-15T01:39:45.694Z,100487.26
2019-06-15T01:42:14.587Z,100484.75
2019-06-15T01:44:43.500Z,100485.36
2019-06-15T01:47:12.388Z,100493.28
2019-06-15T01:49:41.308Z,100503.84
2019-06-15T01:52:10.225Z,100506.98
2019-06-15T01:54:39.132Z,100501.89
2019-06-15T01:57:08.087Z,100493.26
2019-06-15T01:59:36.990Z,100495.98
2019-06-15T02:02:05.935Z,100508.14
2019-06-15T02:04:34.849Z,100520.26
2019-06-15T02:07:03.782Z,100532.03
2019-06-15T02:09:32.666Z,100552.70
2019-06-15T02:12:01.591Z,100565.22
2019-06-15T02:14:30.518Z,100569.77
2019-06-15T02:16:59.431Z,100556.42
2019-06-15T02:19:28.476Z,100546.66
2019-06-15T02:21:57.320Z,100545.15
2019-06-15T02:24:26.218Z,100543.20
2019-06-15T02:26:55.125Z,100544.69
2019-06-15T02:29:24.010Z,100557.18
2019-06-15T02:31:53.003Z,100579.96
2019-06-15T02:34:21.874Z,100589.22
2019-06-15T02:36:50.777Z,100583.94
2019-06-15T02:39:19.672Z,100583.55
2019-06-15T02:41:48.551Z,100567.94
2019-06-15T02:44:17.520Z,100555.84
2019-06-15T02:46:46.847Z,100547.50
2019-06-15T02:49:15.729Z,100541.08
2019-06-15T02:51:44.623Z,100520.69
2019-06-15T02:54:13.524Z,100512.22
2019-06-15T02:56:42.413Z,100526.66
2019-06-15T02:59:11.311Z,100530.11
2019-06-15T03:01:40.195Z,100530.20
2019-06-15T03:04:09.163Z,100520.51
2019-06-15T03:06:38.024Z,100507.27
2019-06-15T03:09:07.011Z,100508.13
2019-06-15T03:11:35.935Z,100512.42
2019-06-15T03:14:05.405Z,100517.20
2019-06-15T03:16:34.323Z,100515.83
2019-06-15T03:19:03.226Z,100518.37
2019-06-15T03:21:32.115Z,100513.28
2019-06-15T03:24:01.017Z,100512.43
2019-06-15T03:26:29.910Z,100510.53
2019-06-15T03:28:58.826Z,100518.05
2019-06-15T03:31:27.705Z,100510.73
2019-06-15T03:33:56.622Z,100514.57
2019-06-15T03:36:25.517Z,100504.64
2019-06-15T03:38:54.431Z,100494.11
2019-06-15T03:41:23.377Z,100491.47
2019-06-15T03:43:52.277Z,100478.52
2019-06-15T03:46:21.168Z,100472.78
2019-06-15T03:48:50.059Z,100460.05
2019-06-15T03:51:18.936Z,100461.66
2019-06-15T03:53:47.867Z,100459.19
2019-06-15T03:56:21.755Z,100452.79
2019-06-15T03:58:45.651Z,100442.66
2019-06-15T04:01:27.178Z,100439.01
2019-06-15T04:03:56.059Z,100442.93
2019-06-15T04:06:24.968Z,100441.75
2019-06-15T04:08:53.920Z,100460.63
2019-06-15T04:11:22.813Z,100479.31
2019-06-15T04:13:51.738Z,100487.92
2019-06-15T04:16:20.624Z,100492.18
2019-06-15T04:18:49.541Z,100507.98
2019-06-15T04:21:18.451Z,100515.72
2019-06-15T04:23:47.349Z,100534.49
2019-06-15T04:26:16.254Z,100537.43
2019-06-15T04:28:45.141Z,100549.05
2019-06-15T04:31:14.090Z,100553.17
2019-06-15T04:33:43.009Z,100559.64
2019-06-15T04:36:11.919Z,100561.83
2019-06-15T04:38:40.822Z,100558.30
2019-06-15T04:41:09.854Z,100559.09
2019-06-15T04:43:38.697Z,100566.91
2019-06-15T04:46:07.661Z,100562.39
2019-06-15T04:48:36.564Z,100565.73
2019-06-15T04:51:05.620Z,100576.66
2019-06-15T04:53:34.533Z,100582.72
2019-06-15T04:56:03.450Z,100580.31
2019-06-15T04:58:32.328Z,100583.26
2019-06-15T05:01:01.283Z,100580.52
2019-06-15T05:03:30.177Z,100580.97
2019-06-15T05:05:59.067Z,100580.81
2019-06-15T05:08:27.984Z,100579.25
2019-06-15T05:10:59.940Z,100578.70
2019-06-15T05:13:25.787Z,100576.70
2019-06-15T05:15:54.686Z,100582.44
2019-06-15T05:18:23.607Z,100575.98
2019-06-15T05:20:52.553Z,100567.75
2019-06-15T05:23:21.405Z,100563.13
2019-06-15T05:25:50.326Z,100563.73
2019-06-15T05:28:19.215Z,100562.18
2019-06-15T05:30:48.133Z,100556.80
2019-06-15T05:33:17.063Z,100553.86
2019-06-15T05:35:45.963Z,100552.69
2019-06-15T05:38:14.868Z,100557.61
2019-06-15T05:40:43.746Z,100554.80
2019-06-15T05:43:12.680Z,100564.51
2019-06-15T05:45:41.610Z,100565.50
2019-06-15T05:48:10.506Z,100565.46
2019-06-15T05:50:39.402Z,100566.61
2019-06-15T05:53:08.480Z,100571.52
2019-06-15T05:55:37.361Z,100565.89
2019-06-15T05:58:06.255Z,100566.93
2019-06-15T06:00:35.178Z,100576.34
2019-06-15T06:03:04.116Z,100574.97
2019-06-15T06:05:33.041Z,100578.32
2019-06-15T06:08:01.935Z,100576.43
2019-06-15T06:10:30.858Z,100585.89
2019-06-15T06:12:59.764Z,100579.88
2019-06-15T06:15:28.676Z,100580.45
2019-06-15T06:17:57.574Z,100576.54
2019-06-15T06:20:26.464Z,100578.95
2019-06-15T06:22:55.358Z,100579.09
2019-06-15T06:25:24.277Z,100577.58
2019-06-15T06:27:53.175Z,100579.89
2019-06-15T06:30:22.076Z,100579.95
2019-06-15T06:32:51.023Z,100580.47
2019-06-15T06:35:19.892Z,100573.36
2019-06-15T06:37:48.768Z,100577.86
2019-06-15T06:40:17.687Z,100579.47
2019-06-15T06:42:46.593Z,100580.41
2019-06-15T06:45:15.513Z,100584.86
2019-06-15T06:47:44.423Z,100584.00
2019-06-15T06:50:13.366Z,100595.59
2019-06-15T06:52:42.274Z,100593.41
2019-06-15T06:55:11.173Z,100601.27
2019-06-15T06:57:52.360Z,100597.98
2019-06-15T07:00:09.043Z,100595.89
2019-06-15T07:02:37.963Z,100602.81
2019-06-15T07:05:06.973Z,100594.91
2019-06-15T07:07:35.902Z,100606.72
2019-06-15T07:10:05.441Z,100600.36
2019-06-15T07:12:34.425Z,100601.36
2019-06-15T07:15:04.860Z,100595.59
2019-06-15T07:17:32.285Z,100593.66
2019-06-15T07:20:01.226Z,100589.47
2019-06-15T07:22:30.178Z,100593.02
2019-06-15T07:24:59.028Z,100598.31
2019-06-15T07:27:28.131Z,100605.08
2019-06-15T07:29:57.048Z,100603.54
2019-06-15T07:32:25.951Z,100608.18
2019-06-15T07:34:54.847Z,100598.97
2019-06-15T07:37:23.758Z,100593.34
2019-06-15T07:39:52.693Z,100596.41
2019-06-15T07:42:21.696Z,100600.11
2019-06-15T07:44:50.590Z,100604.00
2019-06-15T07:47:19.578Z,100597.94
2019-06-15T07:49:48.432Z,100597.83
2019-06-15T07:52:17.338Z,100596.61
2019-06-15T07:54:46.273Z,100595.97
2019-06-15T07:57:15.197Z,100592.86
2019-06-15T07:59:44.107Z,100586.39
2019-06-15T08:02:13.029Z,100601.75
2019-06-15T08:04:41.949Z,100595.02
2019-06-15T08:07:10.840Z,100594.97
2019-06-15T08:09:39.735Z,100587.58
2019-06-15T08:12:08.667Z,100590.70
2019-06-15T08:14:37.574Z,100583.52
2019-06-15T08:17:06.640Z,100580.98
2019-06-15T08:19:35.508Z,100586.08
2019-06-15T08:22:04.385Z,100596.30
2019-06-15T08:24:33.279Z,100597.48
2019-06-15T08:27:02.216Z,100588.58
2019-06-15T08:29:31.089Z,100589.55
2019-06-15T08:32:00.026Z,100591.16
2019-06-15T08:34:33.887Z,100602.33
2019-06-15T08:37:03.190Z,100588.34
2019-06-15T08:39:32.727Z,100584.17
2019-06-15T08:42:14.378Z,100580.00
2019-06-15T08:44:42.111Z,100586.50
2019-06-15T08:47:16.094Z,100594.64
2019-06-15T08:49:48.357Z,100592.02
2019-06-15T08:52:20.058Z,100603.56
2019-06-15T08:54:49.303Z,100613.21
2019-06-15T08:57:18.547Z,100616.68
2019-06-15T08:59:47.796Z,100620.34
2019-06-15T09:02:17.338Z,100649.56
2019-06-15T09:04:46.661Z,100659.28
2019-06-15T09:07:18.168Z,100652.48
2019-06-15T09:09:47.457Z,100664.95
2019-06-15T09:12:16.647Z,100677.66
2019-06-15T09:14:45.796Z,100691.37
2019-06-15T09:17:15.123Z,100703.81
2019-06-15T09:19:46.946Z,100702.06
2019-06-15T09:22:16.131Z,100720.46
2019-06-15T09:24:45.285Z,100740.19
2019-06-15T09:27:14.820Z,100745.92
2019-06-15T09:29:43.959Z,100757.97
2019-06-15T09:32:13.086Z,100761.98
2019-06-15T09:34:42.327Z,100776.56
2019-06-15T09:37:19.844Z,100780.14
2019-06-15T09:39:49.208Z,100789.86
2019-06-15T09:42:20.985Z,100790.16
2019-06-15T09:44:50.084Z,100796.11
2019-06-15T09:47:23.932Z,100796.45
2019-06-15T09:49:53.135Z,100795.61
2019-06-15T09:52:25.097Z,100797.94
2019-06-15T09:54:54.204Z,100798.02
2019-06-15T09:57:32.025Z,100800.05
2019-06-15T10:00:01.130Z,100809.23
2019-06-15T10:02:30.936Z,100798.12
2019-06-15T10:05:02.847Z,100806.74
2019-06-15T10:07:34.963Z,100805.08
2019-06-15T10:10:11.595Z,100791.17
2019-06-15T10:12:43.310Z,100804.71
2019-06-15T10:15:14.413Z,100818.15
2019-06-15T10:17:46.266Z,100825.24
2019-06-15T10:20:20.128Z,100830.20
2019-06-15T10:22:47.204Z,100831.55
2019-06-15T10:25:16.403Z,100832.85
2019-06-15T10:27:58.251Z,100835.30
2019-06-15T10:30:25.756Z,100834.21
2019-06-15T10:32:56.760Z,100820.16
2019-06-15T10:35:27.743Z,100828.20
2019-06-15T10:38:12.754Z,100825.33
2019-06-15T10:40:41.933Z,100828.55
2019-06-15T10:43:15.711Z,100832.63
2019-06-15T10:45:45.636Z,100853.16
2019-06-15T10:48:14.753Z,100854.16
2019-06-15T10:50:53.536Z,100852.78
2019-06-15T10:53:20.375Z,100856.95
2019-06-15T10:55:49.739Z,100856.27
2019-06-15T10:58:19.117Z,100862.58
2019-06-15T11:01:10.530Z,100862.75
2019-06-15T11:03:45.636Z,100872.73
2019-06-15T11:06:14.918Z,100869.86
2019-06-15T11:08:44.453Z,100872.34
2019-06-15T11:11:21.981Z,100884.17
2019-06-15T11:13:53.757Z,100898.37
2019-06-15T11:16:26.209Z,100898.52
2019-06-15T11:18:55.315Z,100895.78
2019-06-15T11:21:25.104Z,100904.60
2019-06-15T11:23:56.997Z,100906.54
2019-06-15T11:26:30.296Z,100906.12
2019-06-15T11:29:01.928Z,100911.55
2019-06-15T11:31:33.993Z,100911.78
2019-06-15T11:34:04.218Z,100919.56
2019-06-15T11:36:33.269Z,100921.50
2019-06-15T11:39:06.660Z,100929.56
2019-06-15T11:41:36.041Z,100928.52
2019-06-15T11:44:05.347Z,100935.54
2019-06-15T11:46:34.645Z,100946.73
2019-06-15T11:49:04.223Z,100931.16
2019-06-15T11:51:35.417Z,100937.11
2019-06-15T11:54:04.831Z,100948.36
2019-06-15T11:56:33.974Z,100960.66
2019-06-15T11:59:03.321Z,100961.73
2019-06-15T12:01:32.472Z,100957.35
2019-06-15T12:04:01.875Z,100963.92
2019-06-15T12:06:36.182Z,100964.23
2019-06-15T12:09:07.947Z,100970.90
2019-06-15T12:11:39.643Z,100974.08
2019-06-15T12:14:09.080Z,100980.65
2019-06-15T12:16:38.579Z,100974.52
2019-06-15T12:19:10.628Z,100985.06
2019-06-15T12:21:40.054Z,100985.41
2019-06-15T12:24:09.409Z,100982.86
2019-06-15T12:26:38.581Z,100976.39
2019-06-15T12:29:08.035Z,100973.52
2019-06-15T12:31:39.823Z,100981.39
2019-06-15T12:34:12.402Z,100983.81
2019-06-15T12:36:41.633Z,100986.06
2019-06-15T12:39:11.205Z,100990.67
2019-06-15T12:41:43.636Z,100992.38
2019-06-15T12:44:13.010Z,100988.44
2019-06-15T12:46:42.325Z,100993.23
2019-06-15T12:49:14.115Z,100994.22
2019-06-15T12:51:51.313Z,101004.45
2019-06-15T12:54:20.507Z,100990.06
2019-06-15T12:56:49.606Z,100989.95
2019-06-15T12:59:24.115Z,100992.75
2019-06-15T13:01:55.678Z,100984.12
2019-06-15T13:04:26.361Z,100992.85
2019-06-15T13:06:55.814Z,100992.33
2019-06-15T13:09:28.257Z,100990.18
2019-06-15T13:12:00.693Z,100998.70
2019-06-15T13:14:32.602Z,100989.34
2019-06-15T13:17:04.945Z,100994.02
2019-06-15T13:19:36.055Z,100989.31
2019-06-15T13:22:06.429Z,100993.34
2019-06-15T13:24:37.421Z,100996.94
2019-06-15T13:27:07.039Z,100993.53
2019-06-15T13:29:36.113Z,100990.69
2019-06-15T13:32:05.692Z,100995.15
2019-06-15T13:34:35.320Z,100987.23
2019-06-15T13:37:04.607Z,100992.39
2019-06-15T13:39:35.981Z,101005.94
2019-06-15T13:42:09.867Z,101001.75
2019-06-15T13:44:36.654Z,101004.62
2019-06-15T13:47:09.247Z,101001.23
2019-06-15T13:49:41.207Z,100995.77
2019-06-15T13:52:10.462Z,101004.06
2019-06-15T13:54:42.027Z,101013.44
2019-06-15T13:57:11.429Z,101018.41
2019-06-15T13:59:44.272Z,101019.56
2019-06-15T14:02:13.421Z,101014.84
2019-06-15T14:04:48.250Z,101010.59
2019-06-15T14:07:20.921Z,101013.68
2019-06-15T14:09:49.891Z,101016.80
2019-06-15T14:12:19.147Z,101015.74
2019-06-15T14:14:51.022Z,101011.88
2019-06-15T14:17:25.538Z,101018.12
2019-06-15T14:19:56.780Z,101017.56
2019-06-15T14:22:24.252Z,101018.70
2019-06-15T14:25:01.892Z,101021.73
2019-06-15T14:27:31.269Z,101019.66
2019-06-15T14:30:02.949Z,101027.17
2019-06-15T14:32:32.115Z,101015.58
2019-06-15T14:35:02.650Z,101017.88
2019-06-15T14:37:37.682Z,101019.04
2019-06-15T14:40:20.781Z,101017.69
2019-06-15T14:42:51.959Z,101023.09
2019-06-15T14:45:21.322Z,101019.25
2019-06-15T14:47:51.193Z,101015.41
2019-06-15T14:50:22.882Z,101025.52
2019-06-15T14:52:55.154Z,101026.16
2019-06-15T14:55:26.272Z,101029.25
2019-06-15T14:57:55.947Z,101027.69
2019-06-15T15:00:27.514Z,101036.41
2019-06-15T15:02:57.455Z,101041.08
2019-06-15T15:05:27.534Z,101040.91
2019-06-15T15:08:01.107Z,101044.45
2019-06-15T15:10:30.296Z,101036.28
2019-06-15T15:13:03.109Z,101024.31
2019-06-15T15:15:32.632Z,101031.30
2019-06-15T15:18:02.211Z,101031.06
2019-06-15T15:20:36.363Z,101036.50
2019-06-15T15:23:14.247Z,101037.05
2019-06-15T15:25:43.680Z,101032.46
2019-06-15T15:28:17.311Z,101040.11
2019-06-15T15:30:46.539Z,101035.76
2019-06-15T15:33:15.859Z,101027.99
2019-06-15T15:35:46.633Z,101037.13
2019-06-15T15:38:14.130Z,101040.98
2019-06-15T15:40:46.823Z,101040.42
2019-06-15T15:43:15.995Z,101037.20
2019-06-15T15:45:46.086Z,101033.06
2019-06-15T15:48:13.636Z,101033.73
2019-06-15T15:50:42.861Z,101034.30
2019-06-15T15:53:12.091Z,101045.45
2019-06-15T15:55:41.474Z,101045.08
2019-06-15T15:58:16.481Z,101045.08
2019-06-15T16:00:40.567Z,101040.73
2019-06-15T16:03:10.052Z,101036.64
2019-06-15T16:05:39.194Z,101041.47
2019-06-15T16:08:09.007Z,101027.60
2019-06-15T16:10:38.089Z,101036.77
2019-06-15T16:13:09.893Z,101038.14
2019-06-15T16:15:46.110Z,101039.06
2019-06-15T16:18:17.159Z,101042.15
2019-06-15T16:20:43.420Z,101046.13
2019-06-15T16:23:12.281Z,101049.58
2019-06-15T16:25:41.188Z,101050.23
2019-06-15T16:28:10.174Z,101050.36
2019-06-15T16:31:00.632Z,101052.47
2019-06-15T16:33:08.282Z,101053.30
2019-06-15T16:35:37.047Z,101047.40
2019-06-15T16:38:06.889Z,101046.59
2019-06-15T16:40:38.890Z,101043.83
2019-06-15T16:43:07.938Z,101036.94
2019-06-15T16:45:36.812Z,101030.33
2019-06-15T16:48:06.367Z,101030.73
2019-06-15T16:50:36.561Z,101021.14
2019-06-15T16:53:03.808Z,101023.69
2019-06-15T16:55:32.711Z,101029.60
2019-06-15T16:58:01.605Z,101037.91
2019-06-15T17:00:32.795Z,101043.52
2019-06-15T17:02:59.423Z,101046.26
2019-06-15T17:05:28.315Z,101058.19
2019-06-15T17:07:57.205Z,101055.92
2019-06-15T17:10:36.254Z,101053.30
2019-06-15T17:13:06.773Z,101048.25
2019-06-15T17:15:36.881Z,101043.35
2019-06-15T17:18:03.379Z,101036.16
2019-06-15T17:20:36.017Z,101045.33
2019-06-15T17:23:02.959Z,101044.55
2019-06-15T17:25:31.850Z,101049.72
2019-06-15T17:28:00.765Z,101053.78
2019-06-15T17:30:29.668Z,101055.98
2019-06-15T17:32:58.572Z,101058.70
2019-06-15T17:35:27.477Z,101060.59
2019-06-15T17:37:56.536Z,101066.55
2019-06-15T17:40:26.836Z,101059.31
2019-06-15T17:42:54.187Z,101058.20
2019-06-15T17:45:23.078Z,101060.98
2019-06-15T17:47:51.995Z,101056.30
2019-06-15T17:50:22.582Z,101062.25
2019-06-15T17:52:51.463Z,101061.30
2019-06-15T17:55:20.402Z,101068.48
2019-06-15T17:57:49.301Z,101069.35
2019-06-15T18:00:18.226Z,101069.97
2019-06-15T18:02:47.131Z,101067.83
2019-06-15T18:05:17.966Z,101076.85
2019-06-15T18:07:46.978Z,101068.89
2019-06-15T18:10:15.931Z,101068.27
2019-06-15T18:12:42.776Z,101073.27
2019-06-15T18:15:11.676Z,101072.66
2019-06-15T18:17:40.589Z,101075.20
2019-06-15T18:20:09.740Z,101078.62
2019-06-15T18:22:38.633Z,101084.87
2019-06-15T18:25:07.730Z,101088.39
2019-06-15T18:27:37.224Z,101087.10
2019-06-15T18:30:06.528Z,101080.47
2019-06-15T18:32:37.662Z,101079.94
2019-06-15T18:35:06.023Z,101090.09
2019-06-15T18:37:32.531Z,101093.89
2019-06-15T18:40:01.457Z,101091.72
2019-06-15T18:42:30.339Z,101093.31
2019-06-15T18:44:59.221Z,101088.06
2019-06-15T18:47:28.145Z,101087.02
2019-06-15T18:49:57.069Z,101089.34
2019-06-15T18:52:26.581Z,101084.64
2019-06-15T18:54:56.031Z,101076.09
2019-06-15T18:57:23.822Z,101075.10
2019-06-15T18:59:52.683Z,101082.13
2019-06-15T19:02:21.579Z,101090.19
2019-06-15T19:04:50.469Z,101089.27
2019-06-15T19:07:19.373Z,101097.45
2019-06-15T19:09:48.336Z,101094.17
2019-06-15T19:12:20.677Z,101087.81
2019-06-15T19:14:47.058Z,101091.09
2019-06-15T19:17:16.492Z,101094.63
2019-06-15T19:19:46.640Z,101100.40
2019-06-15T19:22:12.780Z,101110.92
2019-06-15T19:24:41.711Z,101107.84
2019-06-15T19:27:10.624Z,101107.27
2019-06-15T19:29:39.520Z,101115.19
2019-06-15T19:32:08.560Z,101114.34
2019-06-15T19:34:46.348Z,101107.36
2019-06-15T19:37:06.831Z,101110.42
2019-06-15T19:39:36.909Z,101106.12
2019-06-15T19:42:04.176Z,101104.92
2019-06-15T19:44:33.081Z,101100.65
2019-06-15T19:47:02.008Z,101100.46
2019-06-15T19:49:30.882Z,101112.78
2019-06-15T19:51:59.809Z,101108.01
2019-06-15T19:54:28.679Z,101109.97
2019-06-15T19:56:57.593Z,101114.11
2019-06-15T19:59:26.494Z,101117.74
2019-06-15T20:01:55.384Z,101123.30
2019-06-15T20:04:24.283Z,101127.78
2019-06-15T20:06:53.158Z,101129.31
2019-06-15T20:09:22.058Z,101130.89
2019-06-15T20:11:50.944Z,101134.21
2019-06-15T20:14:19.879Z,101132.58
2019-06-15T20:16:48.799Z,101135.61
2019-06-15T20:19:17.786Z,101134.59
2019-06-15T20:21:46.572Z,101140.84
2019-06-15T20:24:16.180Z,101148.14
2019-06-15T20:26:44.393Z,101151.14
2019-06-15T20:29:13.318Z,101151.55
2019-06-15T20:31:42.205Z,101158.28
2019-06-15T20:34:11.106Z,101170.02
2019-06-15T20:36:40.026Z,101168.81
2019-06-15T20:39:08.970Z,101171.72
2019-06-15T20:41:37.876Z,101168.09
2019-06-15T20:44:06.824Z,101179.76
2019-06-15T20:46:37.136Z,101174.87
2019-06-15T20:49:06.549Z,101175.42
2019-06-15T20:51:33.578Z,101176.64
2019-06-15T20:54:02.473Z,101177.39
2019-06-15T20:56:31.365Z,101181.20
2019-06-15T20:59:00.258Z,101172.19
2019-06-15T21:01:29.159Z,101180.62
2019-06-15T21:03:58.052Z,101190.78
2019-06-15T21:06:26.955Z,101189.97
2019-06-15T21:08:55.882Z,101184.87
2019-06-15T21:11:26.555Z,101182.47
2019-06-15T21:13:55.789Z,101189.36
2019-06-15T21:16:22.578Z,101190.21
2019-06-15T21:18:51.501Z,101188.47
2019-06-15T21:21:20.377Z,101183.53
2019-06-15T21:23:49.282Z,101197.28
2019-06-15T21:26:18.171Z,101189.57
2019-06-15T21:28:47.054Z,101185.48
2019-06-15T21:31:16.710Z,101181.73
2019-06-15T21:33:46.799Z,101182.58
2019-06-15T21:36:13.725Z,101176.61
2019-06-15T21:38:42.642Z,101176.94
2019-06-15T21:41:11.532Z,101171.66
2019-06-15T21:43:40.451Z,101173.88
2019-06-15T21:46:09.395Z,101185.35
2019-06-15T21:48:38.285Z,101189.27
2019-06-15T21:51:08.087Z,101187.38
2019-06-15T21:53:36.360Z,101191.14
2019-06-15T21:56:07.155Z,101191.31
2019-06-15T21:58:36.686Z,101203.77
2019-06-15T22:01:23.003Z,101210.92
2019-06-15T22:03:51.905Z,101220.82
2019-06-15T22:06:20.805Z,101227.83
2019-06-15T22:08:49.681Z,101235.67
2019-06-15T22:11:18.581Z,101241.11
2019-06-15T22:13:47.462Z,101244.20
2019-06-15T22:16:17.101Z,101240.45
2019-06-15T22:18:47.487Z,101230.02
2019-06-15T22:21:16.137Z,101234.28
2019-06-15T22:23:43.050Z,101239.73
2019-06-15T22:26:11.960Z,101243.99
2019-06-15T22:28:40.843Z,101244.82
2019-06-15T22:31:09.727Z,101244.83
2019-06-15T22:33:38.623Z,101243.23
2019-06-15T22:36:20.891Z,101242.73
2019-06-15T22:38:36.856Z,101246.10
2019-06-15T22:41:06.028Z,101240.63
2019-06-15T22:43:36.245Z,101245.91
2019-06-15T22:46:03.182Z,101244.34
2019-06-15T22:48:32.057Z,101249.27
2019-06-15T22:51:00.960Z,101244.16
2019-06-15T22:53:29.850Z,101245.55
2019-06-15T22:55:58.748Z,101240.22
2019-06-15T22:58:27.644Z,101243.41
2019-06-15T23:00:56.855Z,101231.08
2019-06-15T23:03:26.240Z,101231.75
2019-06-15T23:05:56.987Z,101231.59
2019-06-15T23:08:23.252Z,101237.48
2019-06-15T23:10:52.194Z,101236.73
2019-06-15T23:13:21.052Z,101240.14
2019-06-15T23:15:49.942Z,101251.56
2019-06-15T23:18:18.851Z,101248.58
2019-06-15T23:20:47.740Z,101255.25
2019-06-15T23:23:16.639Z,101247.20
2019-06-15T23:25:47.186Z,101249.69
2019-06-15T23:28:16.630Z,101247.80
2019-06-15T23:30:43.605Z,101256.50
2019-06-15T23:33:12.489Z,101254.92
2019-06-15T23:35:46.546Z,101258.94
2019-06-15T23:38:15.952Z,101260.05
2019-06-15T23:40:42.966Z,101264.19
2019-06-15T23:43:11.865Z,101269.45
2019-06-15T23:45:40.746Z,101274.41
2019-06-15T23:48:09.702Z,101268.75
2019-06-15T23:50:38.592Z,101269.65
2019-06-15T23:53:07.586Z,101268.94
2019-06-15T23:55:36.668Z,101271.08
2019-06-15T23:58:06.703Z,101269.50
